Map

Track Data

SID SEASON NUMBER BASIN SUBBASIN NAME ISO_TIME NATURE LAT LON WMO_WIND WMO_PRES WMO_AGENCY TRACK_TYPE DIST2LAND LANDFALL IFLAG USA_AGENCY USA_ATCF_ID USA_LAT USA_LON USA_RECORD USA_STATUS USA_WIND USA_PRES USA_SSHS USA_R34_NE USA_R34_SE USA_R34_SW USA_R34_NW USA_R50_NE USA_R50_SE USA_R50_SW USA_R50_NW USA_R64_NE USA_R64_SE USA_R64_SW USA_R64_NW USA_POCI USA_ROCI USA_RMW USA_EYE TOKYO_LAT TOKYO_LON TOKYO_GRADE TOKYO_WIND TOKYO_PRES TOKYO_R50_DIR TOKYO_R50_LONG TOKYO_R50_SHORT TOKYO_R30_DIR TOKYO_R30_LONG TOKYO_R30_SHORT TOKYO_LAND CMA_LAT CMA_LON CMA_CAT CMA_WIND CMA_PRES HKO_LAT HKO_LON HKO_CAT HKO_WIND HKO_PRES NEWDELHI_LAT NEWDELHI_LON NEWDELHI_GRADE NEWDELHI_WIND NEWDELHI_PRES NEWDELHI_CI NEWDELHI_DP NEWDELHI_POCI REUNION_LAT REUNION_LON REUNION_TYPE REUNION_WIND REUNION_PRES REUNION_TNUM REUNION_CI REUNION_RMW REUNION_R34_NE REUNION_R34_SE REUNION_R34_SW REUNION_R34_NW REUNION_R50_NE REUNION_R50_SE REUNION_R50_SW REUNION_R50_NW REUNION_R64_NE REUNION_R64_SE REUNION_R64_SW REUNION_R64_NW BOM_LAT BOM_LON BOM_TYPE BOM_WIND BOM_PRES BOM_TNUM BOM_CI BOM_RMW BOM_R34_NE BOM_R34_SE BOM_R34_SW BOM_R34_NW BOM_R50_NE BOM_R50_SE BOM_R50_SW BOM_R50_NW BOM_R64_NE BOM_R64_SE BOM_R64_SW BOM_R64_NW BOM_ROCI BOM_POCI BOM_EYE BOM_POS_METHOD BOM_PRES_METHOD NADI_LAT NADI_LON NADI_CAT NADI_WIND NADI_PRES WELLINGTON_LAT WELLINGTON_LON WELLINGTON_WIND WELLINGTON_PRES DS824_LAT DS824_LON DS824_STAGE DS824_WIND DS824_PRES TD9636_LAT TD9636_LON TD9636_STAGE TD9636_WIND TD9636_PRES TD9635_LAT TD9635_LON TD9635_WIND TD9635_PRES TD9635_ROCI NEUMANN_LAT NEUMANN_LON NEUMANN_CLASS NEUMANN_WIND NEUMANN_PRES MLC_LAT MLC_LON MLC_CLASS MLC_WIND MLC_PRES USA_GUST BOM_GUST BOM_GUST_PER REUNION_GUST REUNION_GUST_PER USA_SEAHGT USA_SEARAD_NE USA_SEARAD_SE USA_SEARAD_SW USA_SEARAD_NW STORM_SPEED STORM_DIR
1968270N13261 1968 98 EP MM PAULINE 1968-09-26 00:00:00 TS 13.0000 -98.6000 25 hurdat_epa main 346 338 O________OO___ hurdat_epa EP161968 13.0000 -98.6000 TD 25 -1 13.0000 -98.6000 TC 25 13.0000 -98.6000 1 3 290
1968270N13261 1968 98 EP MM PAULINE 1968-09-26 03:00:00 TS 13.0530 -98.7502 main 342 342 P________PP___ EP161968 13.0600 -98.7475 TD 25 -1 13.0600 -98.7475 TC 25 13.0251 -98.7609 1 3 287
1968270N13261 1968 98 EP MM PAULINE 1968-09-26 06:00:00 TS 13.0900 -98.9035 25 hurdat_epa main 345 345 O________OP___ hurdat_epa EP161968 13.1000 -98.9000 TD 25 -1 13.1000 -98.9000 TC 25 13.0501 -98.9175 1 3 279
1968270N13261 1968 98 EP MM PAULINE 1968-09-26 09:00:00 TS 13.1010 -99.0591 main 353 353 P________PP___ EP161968 13.1075 -99.0575 TD 25 -1 13.1075 -99.0575 TC 25 13.0751 -99.0653 1 3 272
1968270N13261 1968 98 EP MM PAULINE 1968-09-26 12:00:00 TS 13.1000 -99.2000 25 hurdat_epa main 357 357 O________OO___ hurdat_epa EP161968 13.1000 -99.2000 TD 25 -1 13.1000 -99.2000 TC 25 13.1000 -99.2000 1 2 270
1968270N13261 1968 98 EP MM PAULINE 1968-09-26 15:00:00 TS 13.0990 -99.3097 main 362 362 P________PP___ EP161968 13.0925 -99.3075 TD 25 -1 13.0925 -99.3075 TC 25 13.1250 -99.3185 1 2 273
1968270N13261 1968 98 EP MM PAULINE 1968-09-26 18:00:00 TS 13.1100 -99.4045 25 hurdat_epa main 367 360 O________OP___ hurdat_epa EP161968 13.1000 -99.4000 TD 25 -1 13.1000 -99.4000 TC 25 13.1500 -99.4225 1 2 286
1968270N13261 1968 98 EP MM PAULINE 1968-09-26 21:00:00 TS 13.1550 -99.5031 main 360 360 P________PP___ EP161968 13.1500 -99.5000 TD 25 -1 13.1500 -99.5000 TC 25 13.1750 -99.5153 1 2 295
1968270N13261 1968 98 EP MM PAULINE 1968-09-27 00:00:00 TS 13.2000 -99.6000 25 hurdat_epa main 363 363 O________OO___ hurdat_epa EP161968 13.2000 -99.6000 TD 25 -1 13.2000 -99.6000 TC 25 13.2000 -99.6000 1 2 284
1968270N13261 1968 98 EP MM PAULINE 1968-09-27 03:00:00 TS 13.2050 -99.7016 main 366 366 P________PP___ EP161968 13.2000 -99.7075 TD 25 -1 13.2000 -99.7075 TC 25 13.2250 -99.6781 1 2 273
1968270N13261 1968 98 EP MM PAULINE 1968-09-27 06:00:00 TS 13.2100 -99.7900 25 hurdat_epa main 370 359 O________OP___ hurdat_epa EP161968 13.2000 -99.8000 TD 25 -1 13.2000 -99.8000 TC 25 13.2500 -99.7500 1 1 290
1968270N13261 1968 98 EP MM PAULINE 1968-09-27 09:00:00 TS 13.2550 -99.8444 main 359 359 P________PP___ EP161968 13.2500 -99.8500 TD 25 -1 13.2500 -99.8500 TC 25 13.2750 -99.8219 1 1 311
1968270N13261 1968 98 EP MM PAULINE 1968-09-27 12:00:00 TS 13.3000 -99.9000 25 hurdat_epa main 363 363 O________OO___ hurdat_epa EP161968 13.3000 -99.9000 TD 25 -1 13.3000 -99.9000 TC 25 13.3000 -99.9000 1 1 289
1968270N13261 1968 98 EP MM PAULINE 1968-09-27 15:00:00 TS 13.3026 -99.9885 main 368 368 P________PP___ EP161968 13.3000 -99.9925 TD 25 -1 13.3000 -99.9925 TC 25 13.3127 -99.9726 1 2 272
1968270N13261 1968 98 EP MM PAULINE 1968-09-27 18:00:00 TS 13.3055 -100.091 25 hurdat_epa main 372 372 O________OP___ hurdat_epa EP161968 13.3000 -100.100 TD 25 -1 13.3000 -100.100 TC 25 13.3274 -100.055 1 2 283
1968270N13261 1968 98 EP MM PAULINE 1968-09-27 21:00:00 TS 13.3446 -100.180 main 377 367 P________PP___ EP161968 13.3425 -100.185 TD 25 -1 13.3425 -100.185 TC 25 13.3533 -100.160 1 2 295
1968270N13261 1968 98 EP MM PAULINE 1968-09-28 00:00:00 TS 13.4000 -100.300 25 hurdat_epa main 372 372 O________OO___ hurdat_epa EP161968 13.4000 -100.300 TD 25 -1 13.4000 -100.300 TC 25 13.4000 -100.300 1 3 289
1968270N13261 1968 98 EP MM PAULINE 1968-09-28 03:00:00 TS 13.4421 -100.477 main 379 368 P________PP___ EP161968 13.4350 -100.478 TD 25 -1 13.4350 -100.478 TC 25 13.4703 -100.477 1 4 286
1968270N13261 1968 98 EP MM PAULINE 1968-09-28 06:00:00 TS 13.5125 -100.698 25 hurdat_epa main 373 366 O________OP___ hurdat_epa EP161968 13.5000 -100.700 TD 25 -1 13.5000 -100.700 TC 25 13.5624 -100.690 1 5 294
1968270N13261 1968 98 EP MM PAULINE 1968-09-28 09:00:00 TS 13.6427 -100.935 main 370 357 P________PP___ EP161968 13.6350 -100.935 TD 25 -1 13.6350 -100.935 TC 25 13.6734 -100.933 1 6 301
1968270N13261 1968 98 EP MM PAULINE 1968-09-28 12:00:00 TS 13.8000 -101.200 25 hurdat_epa main 362 357 O________OO___ hurdat_epa EP161968 13.8000 -101.200 TD 25 -1 13.8000 -101.200 TC 25 13.8000 -101.200 1 6 300
1968270N13261 1968 98 EP MM PAULINE 1968-09-28 15:00:00 TS 13.9479 -101.489 main 368 358 P________PP___ EP161968 13.9500 -101.493 TD 25 -1 13.9500 -101.493 TC 25 13.9397 -101.474 1 7 297
1968270N13261 1968 98 EP MM PAULINE 1968-09-28 18:00:00 TS 14.0985 -101.794 25 hurdat_epa main 363 355 O________OP___ hurdat_epa EP161968 14.1000 -101.800 TD 25 -1 14.1000 -101.800 TC 25 14.0924 -101.770 1 7 298
1968270N13261 1968 98 EP MM PAULINE 1968-09-28 21:00:00 TS 14.2557 -102.090 main 352 349 P________PP___ EP161968 14.2574 -102.093 TD 25 -1 14.2574 -102.093 TC 25 14.2490 -102.081 1 7 297
1968270N13261 1968 98 EP MM PAULINE 1968-09-29 00:00:00 TS 14.4000 -102.400 25 1008 hurdat_epa main 353 352 O________OO___ hurdat_epa EP161968 14.4000 -102.400 TD 25 1008 -1 14.4000 -102.400 TC 25 1008 14.4000 -102.400 2 7 292
1968270N13261 1968 98 EP MM PAULINE 1968-09-29 03:00:00 TS 14.5064 -102.745 main 357 357 P________PP___ EP161968 14.5000 -102.750 TD 35 0 14.5000 -102.750 TC 35 14.5322 -102.726 2 7 288
1968270N13261 1968 98 EP MM PAULINE 1968-09-29 06:00:00 TS 14.6115 -103.092 45 hurdat_epa main 370 367 O________OP___ hurdat_epa EP161968 14.6000 -103.100 TS 45 0 14.6000 -103.100 TC 45 14.6575 -103.058 2 7 291
1968270N13261 1968 98 EP MM PAULINE 1968-09-29 09:00:00 TS 14.7558 -103.403 main 366 362 P________PP___ EP161968 14.7499 -103.407 TS 45 0 14.7499 -103.407 TC 45 14.7791 -103.385 2 7 296
1968270N13261 1968 98 EP MM PAULINE 1968-09-29 12:00:00 TS 14.9000 -103.700 45 hurdat_epa main 366 362 O________OO___ hurdat_epa EP161968 14.9000 -103.700 TS 45 0 14.9000 -103.700 TC 45 14.9000 -103.700 2 6 293
1968270N13261 1968 98 EP MM PAULINE 1968-09-29 15:00:00 TS 14.9984 -104.002 main 366 362 P________PP___ EP161968 15.0000 -104.008 TS 45 0 15.0000 -104.008 TC 45 14.9922 -103.982 2 6 289
1968270N13261 1968 98 EP MM PAULINE 1968-09-29 18:00:00 TS 15.0979 -104.290 45 hurdat_epa main 366 359 O________OP___ hurdat_epa EP161968 15.1000 -104.300 TS 45 0 15.1000 -104.300 TC 45 15.0896 -104.251 2 6 293
1968270N13261 1968 98 EP MM PAULINE 1968-09-29 21:00:00 TS 15.2254 -104.544 main 362 348 P________PP___ EP161968 15.2274 -104.550 TS 45 0 15.2274 -104.550 TC 45 15.2172 -104.519 2 6 302
1968270N13261 1968 98 EP MM PAULINE 1968-09-30 00:00:00 TS 15.4000 -104.800 45 hurdat_epa main 352 341 O________OO___ hurdat_epa EP161968 15.4000 -104.800 TS 45 0 15.4000 -104.800 TC 45 15.4000 -104.800 2 7 307
1968270N13261 1968 98 EP MM PAULINE 1968-09-30 03:00:00 TS 15.6186 -105.089 main 346 329 P________PP___ EP161968 15.6125 -105.085 TS 45 0 15.6125 -105.085 TC 45 15.6430 -105.103 2 8 311
1968270N13261 1968 98 EP MM PAULINE 1968-09-30 06:00:00 TS 15.9090 -105.404 45 hurdat_epa main 336 323 O________OP___ hurdat_epa EP161968 15.9000 -105.400 TS 45 0 15.9000 -105.400 TC 45 15.9449 -105.421 2 9 316
1968270N13261 1968 98 EP MM PAULINE 1968-09-30 09:00:00 TS 16.2698 -105.745 main 323 311 P________PP___ EP161968 16.2625 -105.743 TS 45 0 16.2625 -105.743 TC 45 16.2992 -105.753 2 10 320
1968270N13261 1968 98 EP MM PAULINE 1968-09-30 12:00:00 TS 16.7000 -106.100 45 hurdat_epa main 311 280 O________OO___ hurdat_epa EP161968 16.7000 -106.100 TS 45 0 16.7000 -106.100 TC 45 16.7000 -106.100 2 11 324
1968270N13261 1968 98 EP MM PAULINE 1968-09-30 15:00:00 TS 17.1835 -106.447 main 280 268 P________PP___ EP161968 17.1924 -106.443 TS 60 0 17.1924 -106.443 TC 60 17.1481 -106.464 2 12 326
1968270N13261 1968 98 EP MM PAULINE 1968-09-30 18:00:00 TS 17.6870 -106.808 75 hurdat_epa main 268 260 O________OP___ hurdat_epa EP161968 17.7000 -106.800 HU 75 1 17.7000 -106.800 TC 75 17.6350 -106.842 2 12 323
1968270N13261 1968 98 EP MM PAULINE 1968-09-30 21:00:00 TS 18.1579 -107.205 main 260 260 P________PP___ EP161968 18.1650 -107.200 HU 75 1 18.1650 -107.200 TC 75 18.1294 -107.224 2 12 321
1968270N13261 1968 98 EP MM PAULINE 1968-10-01 00:00:00 TS 18.6000 -107.600 75 hurdat_epa main 270 266 O________OO___ hurdat_epa EP161968 18.6000 -107.600 HU 75 1 18.6000 -107.600 TC 75 18.6000 -107.600 4 11 320
1968270N13261 1968 98 EP MM PAULINE 1968-10-01 03:00:00 TS 19.0134 -107.955 main 284 280 P________PP___ EP161968 19.0149 -107.958 HU 75 1 19.0149 -107.958 TC 75 19.0073 -107.942 4 10 321
1968270N13261 1968 98 EP MM PAULINE 1968-10-01 06:00:00 TS 19.3973 -108.296 75 hurdat_epa main 293 293 O________OP___ hurdat_epa EP161968 19.4000 -108.300 HU 75 1 19.4000 -108.300 TC 75 19.3867 -108.279 4 10 319
1968270N13261 1968 98 EP MM PAULINE 1968-10-01 09:00:00 TS 19.7614 -108.633 main 310 310 P________PP___ EP161968 19.7648 -108.635 HU 75 1 19.7648 -108.635 TC 75 19.7478 -108.626 4 10 317
1968270N13261 1968 98 EP MM PAULINE 1968-10-01 12:00:00 TS 20.1000 -109.000 75 hurdat_epa main 323 282 O________OO___ hurdat_epa EP161968 20.1000 -109.000 HU 75 1 20.1000 -109.000 TC 75 20.1000 -109.000 4 10 310
1968270N13261 1968 98 EP MM PAULINE 1968-10-01 15:00:00 TS 20.3958 -109.444 main 282 245 P________PP___ EP161968 20.3925 -109.435 HU 75 1 20.3925 -109.435 TC 75 20.4093 -109.478 4 11 305
1968270N13261 1968 98 EP MM PAULINE 1968-10-01 18:00:00 TS 20.7037 -109.915 75 hurdat_epa main 245 214 O________OP___ hurdat_epa EP161968 20.7000 -109.900 HU 75 1 20.7000 -109.900 TC 75 20.7187 -109.975 4 11 307
1968270N13261 1968 98 EP MM PAULINE 1968-10-01 21:00:00 TS 21.0578 -110.391 main 205 176 P________PP___ EP161968 21.0551 -110.380 HU 75 1 21.0551 -110.380 TC 75 21.0687 -110.434 4 12 314
1968270N13261 1968 98 EP MM PAULINE 1968-10-02 00:00:00 TS 21.5000 -110.800 75 hurdat_epa main 176 151 O________OO___ hurdat_epa EP161968 21.5000 -110.800 HU 75 1 21.5000 -110.800 TC 75 21.5000 -110.800 4 12 326
1968270N13261 1968 98 EP MM PAULINE 1968-10-02 03:00:00 TS 22.0573 -111.112 main 144 130 P________PP___ EP161968 22.0549 -111.125 HU 75 1 22.0549 -111.125 TC 75 22.0670 -111.061 4 13 340
1968270N13261 1968 98 EP MM PAULINE 1968-10-02 06:00:00 TS 22.7033 -111.283 75 hurdat_epa main 132 75 O________OP___ hurdat_epa EP161968 22.7000 -111.300 HU 75 1 22.7000 -111.300 TC 75 22.7165 -111.216 4 14 352
1968270N13261 1968 98 EP MM PAULINE 1968-10-02 09:00:00 TS 23.4015 -111.313 main 75 10 P________PP___ EP161968 23.3999 -111.325 HU 75 1 23.3999 -111.325 TC 75 23.4078 -111.263 4 14 3
1968270N13261 1968 98 EP MM PAULINE 1968-10-02 12:00:00 TS 24.1000 -111.200 75 hurdat_epa main 10 0 O________OO___ hurdat_epa EP161968 24.1000 -111.200 HU 75 1 24.1000 -111.200 TC 75 24.1000 -111.200 2 14 13
1968270N13261 1968 98 EP MM PAULINE 1968-10-02 15:00:00 TS 24.7181 -110.996 main 0 0 P________PP___ EP161968 24.7075 -110.987 HU 60 0 24.7075 -110.987 TC 60 24.7607 -111.028 2 13 20
1968270N13261 1968 98 EP MM PAULINE 1968-10-02 18:00:00 TS 25.3144 -110.711 45 hurdat_epa main 30 30 O________OP___ hurdat_epa EP161968 25.3000 -110.700 TS 45 0 25.3000 -110.700 TC 45 25.3911 -110.769 2 13 24
1968270N13261 1968 98 EP MM PAULINE 1968-10-02 21:00:00 TS 25.9358 -110.386 main 82 37 P________PP___ EP161968 25.9276 -110.378 TS 45 0 25.9276 -110.378 TC 45 26.0010 -110.451 2 14 23
1968270N13261 1968 98 EP MM PAULINE 1968-10-03 00:00:00 TS 26.6000 -110.100 45 hurdat_epa main 37 0 O________OO___ hurdat_epa EP161968 26.6000 -110.100 TS 45 0 26.6000 -110.100 TC 45 26.6000 -110.100 6 14 15
1968270N13261 1968 98 EP MM PAULINE 1968-10-03 03:00:00 TS 27.3124 -109.962 main 0 0 P________P____ EP161968 27.3124 -109.962 TS 45 0 27.3124 -109.962 TC 45 6 15 7
1968270N13261 1968 98 EP MM PAULINE 1968-10-03 06:00:00 MX 28.1000 -109.900 45 hurdat_epa main 0 0 O________O____ hurdat_epa EP161968 28.1000 -109.900 TS 45 0 28.1000 -109.900 45 6 17 3
1968270N13261 1968 98 EP MM PAULINE 1968-10-03 09:00:00 MX 28.9750 -109.850 main 0 0 P________P____ EP161968 28.9750 -109.850 TS 35 0 28.9750 -109.850 35 6 18 3
1968270N13261 1968 98 EP MM PAULINE 1968-10-03 12:00:00 MX 29.9000 -109.800 25 hurdat_epa main 0 O________O____ hurdat_epa EP161968 29.9000 -109.800 TD 25 -1 29.9000 -109.800 25 19 3

About IBTrACS Database

This database is a web-friendly format of International Best Track Archive for Climate Stewardship (IBTrACS), a global best track data archive curated by NOAA dating back to 1842.

Updated: 2021-10-08